Time;durP1;ratioP1;P1;durP2;ratioP2;P2;SDS_P1;SDS_P2;PMS_P1;PMS_P2;Temp;Humidity;BMP_temperature;BMP_pressure;BME280_temperature;BME280_humidity;BME280_pressure;Samples;Min_cycle;Max_cycle;Signal;HPM_P1;HPM_P2
2023/01/16 00:00:34;;;;;;;2.75;0.70;;;;;;;2.99;79.31;99575.31;7397361;19;20035;-71
2023/01/16 00:03:02;;;;;;;3.33;1.33;;;;;;;2.95;79.44;99569.28;7399954;19;20030;-71
2023/01/16 00:05:31;;;;;;;3.35;0.85;;;;;;;2.90;79.51;99564.13;7399937;19;20018;-71
2023/01/16 00:07:59;;;;;;;3.85;0.73;;;;;;;2.87;79.82;99560.72;7399808;19;20086;-71
2023/01/16 00:10:28;;;;;;;1.45;0.80;;;;;;;2.81;79.85;99559.06;7399747;19;20078;-71
2023/01/16 00:12:56;;;;;;;2.47;0.80;;;;;;;2.77;80.08;99560.81;7397434;19;20018;-71
2023/01/16 00:15:27;;;;;;;3.53;1.23;;;;;;;2.73;80.41;99560.84;7399569;19;20028;-70
2023/01/16 00:17:56;;;;;;;1.20;1.00;;;;;;;2.70;80.62;99559.13;7399492;19;20441;-71
2023/01/16 00:20:25;;;;;;;3.97;1.30;;;;;;;2.65;80.50;99566.09;7399058;19;20486;-71
2023/01/16 00:22:53;;;;;;;2.85;0.95;;;;;;;2.61;80.36;99554.88;7396950;19;20018;-71
2023/01/16 00:25:22;;;;;;;3.00;0.90;;;;;;;2.59;80.89;99553.19;7398977;19;20494;-71
2023/01/16 00:27:50;;;;;;;1.95;0.90;;;;;;;2.58;80.87;99556.66;7399162;19;20086;-71
2023/01/16 00:30:19;;;;;;;4.22;1.17;;;;;;;2.55;81.00;99559.28;7399131;19;20026;-71
2023/01/16 00:32:50;;;;;;;3.85;1.10;;;;;;;2.53;81.12;99545.50;7397356;19;20018;-71
2023/01/16 00:35:19;;;;;;;4.45;1.23;;;;;;;2.53;81.28;99545.50;7399311;19;20019;-71
2023/01/16 00:37:47;;;;;;;2.42;0.90;;;;;;;2.53;81.05;99542.91;7398801;19;20019;-71
2023/01/16 00:40:16;;;;;;;2.75;1.10;;;;;;;2.52;81.06;99547.22;7398122;19;20082;-70
2023/01/16 00:42:51;;;;;;;2.90;1.20;;;;;;;2.49;81.12;99541.19;7396099;19;20086;-71
2023/01/16 00:45:20;;;;;;;3.30;1.17;;;;;;;2.55;81.37;99543.72;7396463;19;20022;-71
2023/01/16 00:47:51;;;;;;;2.60;1.17;;;;;;;2.56;81.40;99545.47;7398184;19;20035;-70
2023/01/16 00:50:19;;;;;;;3.30;1.13;;;;;;;2.55;81.47;99538.56;7398123;19;20034;-71
2023/01/16 00:52:48;;;;;;;3.60;1.15;;;;;;;2.58;81.65;99538.53;7397048;19;20086;-71
2023/01/16 00:55:17;;;;;;;2.42;1.40;;;;;;;2.59;81.60;99529.88;7398334;19;20082;-71
2023/01/16 00:57:45;;;;;;;1.48;0.80;;;;;;;2.63;81.26;99541.94;7398244;19;20022;-71
2023/01/16 01:00:14;;;;;;;3.03;0.90;;;;;;;2.65;81.45;99539.34;7397720;19;20107;-70
2023/01/16 01:02:43;;;;;;;5.32;1.17;;;;;;;2.69;81.28;99541.03;7395940;19;20027;-71
2023/01/16 01:05:14;;;;;;;2.38;0.95;;;;;;;2.70;81.54;99535.81;7397530;19;20415;-71
2023/01/16 01:07:42;;;;;;;3.25;1.08;;;;;;;2.72;81.02;99536.69;7395574;19;20554;-72
2023/01/16 01:10:12;;;;;;;3.83;1.15;;;;;;;2.74;81.32;99540.13;7397818;19;20087;-70
2023/01/16 01:12:40;;;;;;;3.60;0.93;;;;;;;2.75;81.16;99541.81;7395247;19;20097;-71
2023/01/16 01:15:10;;;;;;;3.55;1.08;;;;;;;2.76;81.46;99543.53;7397654;19;20095;-71
2023/01/16 01:17:38;;;;;;;2.30;0.95;;;;;;;2.76;81.48;99538.38;7397036;19;20441;-70
2023/01/16 01:20:08;;;;;;;1.65;1.20;;;;;;;2.76;81.47;99540.09;7397093;19;20091;-71
2023/01/16 01:22:39;;;;;;;2.55;1.15;;;;;;;2.74;81.60;99537.53;7397854;19;20031;-71
2023/01/16 01:25:08;;;;;;;1.38;0.80;;;;;;;2.69;81.54;99536.72;7397704;19;20031;-71
2023/01/16 01:27:37;;;;;;;3.00;0.93;;;;;;;2.65;81.65;99535.00;7397244;19;20035;-71
2023/01/16 01:30:06;;;;;;;3.00;1.00;;;;;;;2.61;81.85;99534.16;7397231;19;20022;-70
2023/01/16 01:32:36;;;;;;;2.30;0.75;;;;;;;2.57;82.00;99531.66;7395955;19;20348;-71
2023/01/16 01:35:06;;;;;;;1.75;0.85;;;;;;;2.52;82.10;99533.41;7394860;19;20015;-71
2023/01/16 01:37:34;;;;;;;1.52;0.82;;;;;;;2.47;82.21;99522.25;7396579;19;20507;-71
2023/01/16 01:40:07;;;;;;;2.67;1.20;;;;;;;2.42;82.21;99522.28;7399312;19;20015;-70
2023/01/16 01:42:51;;;;;;;5.53;0.93;;;;;;;2.37;82.45;99519.69;7394673;19;20015;-71
2023/01/16 01:45:24;;;;;;;3.53;1.10;;;;;;;2.34;82.83;99511.09;7396998;19;20014;-70
2023/01/16 01:47:59;;;;;;;1.33;0.93;;;;;;;2.29;82.82;99505.97;7396814;19;20079;-70
2023/01/16 01:50:38;;;;;;;3.38;1.10;;;;;;;2.28;83.29;99520.63;7396262;19;20079;-70
2023/01/16 01:53:12;;;;;;;2.40;1.20;;;;;;;2.24;83.07;99511.19;7395679;19;20086;-71
2023/01/16 01:55:47;;;;;;;2.60;1.08;;;;;;;2.22;83.52;99514.66;7396865;19;20078;-71
2023/01/16 01:58:21;;;;;;;1.42;0.80;;;;;;;2.21;83.65;99507.75;7396643;19;20086;-70
2023/01/16 02:00:53;;;;;;;2.88;1.08;;;;;;;2.19;83.51;99501.75;7396622;19;20029;-70
2023/01/16 02:03:26;;;;;;;3.78;1.50;;;;;;;2.17;83.80;99506.06;7395134;19;20014;-71
2023/01/16 02:05:59;;;;;;;1.70;0.90;;;;;;;2.16;83.85;99504.34;7395775;19;20081;-71
2023/01/16 02:08:33;;;;;;;2.85;1.70;;;;;;;2.15;84.12;99505.22;7394744;19;20022;-68
2023/01/16 02:11:25;;;;;;;3.70;0.98;;;;;;;2.13;83.93;99500.06;7396347;19;20014;-68
2023/01/16 02:13:54;;;;;;;2.63;1.10;;;;;;;2.12;84.13;99500.91;7395453;19;20018;-68
2023/01/16 02:19:18;;;;;;;1.83;1.08;;;;;;;2.07;84.54;99498.38;7395955;19;20014;-68
2023/01/16 02:22:21;;;;;;;2.05;1.05;;;;;;;2.04;84.59;99495.78;7395849;19;20022;-68
2023/01/16 02:25:25;;;;;;;3.28;1.40;;;;;;;2.03;84.94;99485.47;7390348;19;20093;-68
2023/01/16 02:28:37;;;;;;;1.40;0.90;;;;;;;2.02;84.94;99479.44;7395341;19;20011;-69
2023/01/16 02:31:30;;;;;;;2.10;1.00;;;;;;;2.00;85.23;99476.00;7395080;19;20014;-69
2023/01/16 02:34:37;;;;;;;1.88;0.93;;;;;;;2.00;85.22;99475.13;7393467;19;20015;-68
2023/01/16 02:37:18;;;;;;;3.13;1.20;;;;;;;2.00;85.05;99481.19;7395784;19;20018;-68
2023/01/16 02:39:54;;;;;;;1.92;1.00;;;;;;;2.00;85.31;99469.94;7394741;19;20485;-68
2023/01/16 02:42:35;;;;;;;2.22;0.90;;;;;;;2.00;85.22;99472.53;7393866;19;20093;-69
2023/01/16 02:45:13;;;;;;;2.42;1.00;;;;;;;1.99;85.25;99460.50;7394659;19;20366;-69
2023/01/16 02:47:49;;;;;;;1.98;1.02;;;;;;;1.98;85.38;99462.22;7394632;19;20086;-68
2023/01/16 02:50:23;;;;;;;1.27;0.80;;;;;;;1.97;85.36;99457.91;7394615;19;20083;-68
2023/01/16 02:52:59;;;;;;;4.13;1.10;;;;;;;1.97;85.64;99451.88;7393653;19;20549;-68
2023/01/16 02:55:34;;;;;;;3.28;1.30;;;;;;;1.95;85.67;99447.56;7395060;19;20031;-68
2023/01/16 02:58:07;;;;;;;2.60;1.35;;;;;;;1.95;85.84;99433.78;7392411;19;20478;-68
2023/01/16 03:00:36;;;;;;;3.30;1.10;;;;;;;1.94;85.77;99434.66;7394960;19;20074;-68
2023/01/16 03:03:07;;;;;;;3.85;1.40;;;;;;;1.94;85.95;99434.66;7394016;19;20090;-67
2023/01/16 03:05:49;;;;;;;2.75;1.23;;;;;;;1.92;86.05;99426.03;7394078;19;20423;-69
2023/01/16 03:08:27;;;;;;;2.67;1.00;;;;;;;1.91;85.89;99427.78;7394746;19;20123;-70
2023/01/16 03:11:22;;;;;;;1.85;0.90;;;;;;;1.91;86.11;99429.50;7392192;19;20078;-69
2023/01/16 03:14:24;;;;;;;3.13;0.93;;;;;;;1.91;86.01;99427.78;7393021;19;20083;-68
2023/01/16 03:17:07;;;;;;;1.30;1.00;;;;;;;1.91;86.24;99429.50;7392106;19;20070;-71
2023/01/16 03:19:49;;;;;;;3.33;1.20;;;;;;;1.91;86.12;99427.78;7394340;19;20015;-68
2023/01/16 03:22:26;;;;;;;3.45;1.55;;;;;;;1.91;86.17;99427.78;7394749;19;20545;-68
2023/01/16 03:25:04;;;;;;;3.97;0.80;;;;;;;1.92;86.36;99423.44;7393273;19;20019;-68
2023/01/16 03:27:45;;;;;;;5.68;1.45;;;;;;;1.94;86.28;99432.06;7394343;19;20486;-70
2023/01/16 03:30:19;;;;;;;4.40;1.25;;;;;;;1.95;86.40;99433.78;7394256;19;20010;-69
2023/01/16 03:32:55;;;;;;;3.88;1.00;;;;;;;1.94;86.28;99426.91;7390812;19;20553;-69
2023/01/16 03:35:31;;;;;;;3.63;1.20;;;;;;;1.96;86.09;99425.16;7396715;19;20015;-69
2023/01/16 03:38:02;;;;;;;3.63;1.10;;;;;;;1.96;86.15;99414.81;7398524;19;20015;-69
2023/01/16 03:40:34;;;;;;;3.35;1.30;;;;;;;1.95;86.28;99413.94;7400200;19;20082;-68
2023/01/16 03:43:13;;;;;;;3.55;1.27;;;;;;;1.94;86.41;99404.47;7398531;19;20019;-69
2023/01/16 03:45:45;;;;;;;6.10;1.63;;;;;;;1.94;86.23;99395.84;7400256;19;20588;-69
2023/01/16 03:48:20;;;;;;;6.90;1.50;;;;;;;1.93;86.26;99391.53;7397814;19;20082;-69
2023/01/16 03:50:54;;;;;;;;;;;;;;;1.93;86.20;99388.97;7401478;19;20014;-68
2023/01/16 03:53:28;;;;;;;7.70;3.30;;;;;;;1.92;86.36;99382.06;7398140;19;19936;-68
2023/01/16 03:56:03;;;;;;;4.30;2.08;;;;;;;1.92;86.11;99379.47;7399991;19;20070;-68
2023/01/16 03:58:37;;;;;;;4.35;2.13;;;;;;;1.91;86.31;99372.63;7400257;19;20078;-69
2023/01/16 04:01:10;;;;;;;;;;;;;;;1.91;86.07;99373.47;7401083;19;20426;-68
2023/01/16 04:03:45;;;;;;;6.32;1.52;;;;;;;1.91;86.08;99359.69;7398686;19;20286;-68
2023/01/16 04:06:23;;;;;;;4.95;1.58;;;;;;;1.90;86.15;99351.03;7399586;19;20015;-69
2023/01/16 04:08:55;;;;;;;3.35;1.70;;;;;;;1.91;86.30;99351.91;7400047;19;20039;-69
2023/01/16 04:11:26;;;;;;;6.20;1.85;;;;;;;1.92;86.28;99357.06;7399995;19;20036;-69
2023/01/16 04:13:59;;;;;;;3.22;1.58;;;;;;;1.93;85.95;99357.91;7397956;19;20074;-68
2023/01/16 04:16:29;;;;;;;5.03;1.77;;;;;;;1.95;86.17;99356.19;7396814;19;20506;-68
2023/01/16 04:18:59;;;;;;;7.45;2.10;;;;;;;1.94;86.00;99344.97;7399501;19;20425;-68
2023/01/16 04:21:31;;;;;;;5.28;2.50;;;;;;;1.96;85.94;99347.56;7397114;19;20082;-69
2023/01/16 04:24:02;;;;;;;4.85;2.25;;;;;;;1.95;85.98;99330.31;7397637;19;20018;-69
2023/01/16 04:26:30;;;;;;;5.07;3.17;;;;;;;1.98;86.22;99335.44;7398897;19;20481;-69
2023/01/16 04:28:59;;;;;;;4.72;2.90;;;;;;;2.00;85.78;99331.13;7399113;19;20019;-69
2023/01/16 04:31:28;;;;;;;4.05;2.00;;;;;;;2.02;85.76;99328.53;7398977;19;20035;-70
2023/01/16 04:33:57;;;;;;;3.85;1.95;;;;;;;2.05;86.04;99325.91;7397507;19;20018;-70
2023/01/16 04:36:26;;;;;;;5.50;2.22;;;;;;;2.07;85.69;99324.16;7398749;19;20561;-69
2023/01/16 04:38:57;;;;;;;2.75;1.42;;;;;;;2.08;85.85;99313.78;7398403;19;20086;-69
2023/01/16 04:44:07;;;;;;;3.55;1.63;;;;;;;2.12;85.66;99306.84;7395103;19;20034;-70
2023/01/16 04:46:37;;;;;;;3.58;1.65;;;;;;;2.14;85.36;99314.59;7397083;19;20035;-69
2023/01/16 04:49:06;;;;;;;3.63;1.80;;;;;;;2.15;84.93;99313.72;7398297;19;20035;-69
2023/01/16 04:51:35;;;;;;;4.43;1.63;;;;;;;2.16;85.32;99303.38;7398192;19;20379;-69
2023/01/16 04:54:08;;;;;;;3.40;1.65;;;;;;;2.13;85.08;99292.22;7396595;19;20082;-69
2023/01/16 04:56:36;;;;;;;2.78;1.20;;;;;;;2.20;85.28;99293.84;7395461;19;20433;-69
2023/01/16 04:59:05;;;;;;;4.45;1.70;;;;;;;2.21;85.08;99295.56;7395529;19;20018;-69
2023/01/16 05:01:34;;;;;;;5.82;2.33;;;;;;;2.23;84.82;99291.22;7397204;19;20545;-68
2023/01/16 05:04:03;;;;;;;6.45;2.10;;;;;;;2.24;84.78;99290.34;7396197;19;20507;-69
2023/01/16 05:06:31;;;;;;;3.22;1.40;;;;;;;2.27;85.01;99287.72;7395185;19;20029;-69
2023/01/16 05:09:00;;;;;;;3.45;1.80;;;;;;;2.29;84.78;99283.41;7397731;19;20019;-69
2023/01/16 05:11:31;;;;;;;7.10;2.47;;;;;;;2.30;84.32;99282.53;7397682;19;20074;-69
2023/01/16 05:14:00;;;;;;;4.03;1.58;;;;;;;2.31;84.10;99280.78;7395656;19;20438;-69
2023/01/16 05:16:29;;;;;;;4.95;1.42;;;;;;;2.34;83.92;99278.16;7395541;19;20027;-70
2023/01/16 05:18:58;;;;;;;4.60;1.67;;;;;;;2.35;83.95;99277.28;7395048;19;20434;-69
2023/01/16 05:21:26;;;;;;;5.55;1.70;;;;;;;2.36;84.02;99269.50;7396651;19;20519;-70
2023/01/16 05:23:55;;;;;;;3.58;1.17;;;;;;;2.37;84.30;99278.97;7395196;19;20043;-70
2023/01/16 05:26:23;;;;;;;3.03;1.58;;;;;;;2.37;83.99;99271.22;7396813;19;20014;-70
2023/01/16 05:28:54;;;;;;;2.63;1.48;;;;;;;2.37;83.71;99260.00;7396783;19;20419;-69
2023/01/16 05:31:23;;;;;;;4.50;1.48;;;;;;;2.39;83.72;99266.88;7396074;19;20077;-70
2023/01/16 05:33:51;;;;;;;5.55;1.17;;;;;;;2.39;83.20;99253.94;7395047;19;20540;-69
2023/01/16 05:36:19;;;;;;;4.82;1.52;;;;;;;2.39;83.55;99253.94;7394971;19;20019;-69
2023/01/16 05:38:50;;;;;;;4.78;1.30;;;;;;;2.40;83.00;99253.06;7396538;19;20440;-69
2023/01/16 05:41:19;;;;;;;6.90;1.48;;;;;;;2.40;83.21;99247.00;7396073;19;20031;-69
2023/01/16 05:43:47;;;;;;;3.40;1.40;;;;;;;2.41;83.10;99241.84;7394168;19;20077;-69
2023/01/16 05:46:18;;;;;;;1.60;0.90;;;;;;;2.40;83.13;99241.84;7395882;19;20552;-68
2023/01/16 05:48:47;;;;;;;6.05;1.70;;;;;;;2.40;83.36;99240.13;7396054;19;20498;-68
2023/01/16 05:51:16;;;;;;;5.22;1.42;;;;;;;2.40;83.00;99239.25;7396848;19;20528;-69
2023/01/16 05:53:47;;;;;;;8.10;1.55;;;;;;;2.40;83.12;99240.13;7395492;19;20039;-68
2023/01/16 05:56:15;;;;;;;5.55;1.50;;;;;;;2.40;83.07;99234.94;7396790;19;20024;-68
2023/01/16 05:58:44;;;;;;;4.68;1.40;;;;;;;2.40;83.01;99234.06;7395236;19;20074;-68
2023/01/16 06:01:12;;;;;;;3.83;1.23;;;;;;;2.39;83.19;99238.41;7395057;19;20382;-69
2023/01/16 06:03:43;;;;;;;4.13;1.30;;;;;;;2.39;83.02;99230.66;7394141;19;20078;-68
2023/01/16 06:06:12;;;;;;;3.15;1.20;;;;;;;2.38;83.11;99231.50;7392756;19;20015;-69
2023/01/16 06:08:40;;;;;;;2.75;1.30;;;;;;;2.38;82.53;99231.50;7394892;19;20077;-70
2023/01/16 06:11:09;;;;;;;6.60;1.83;;;;;;;2.39;82.75;99232.34;7394440;19;20498;-68
2023/01/16 06:13:37;;;;;;;1.48;1.00;;;;;;;2.39;82.79;99219.41;7393897;19;20086;-69
2023/01/16 06:16:06;;;;;;;3.05;1.38;;;;;;;2.37;82.44;99227.19;7394418;19;20018;-68
2023/01/16 06:18:34;;;;;;;6.32;1.90;;;;;;;2.38;82.91;99221.16;7394473;19;20086;-68
2023/01/16 06:21:05;;;;;;;10.27;2.42;;;;;;;2.39;82.72;99229.78;7394036;19;20082;-69
2023/01/16 06:23:34;;;;;;;2.92;1.75;;;;;;;2.38;82.52;99217.72;7392908;19;20023;-68
2023/01/16 06:26:05;;;;;;;7.78;1.42;;;;;;;2.38;82.39;99210.81;7393187;19;20086;-70
2023/01/16 06:28:33;;;;;;;4.85;1.98;;;;;;;2.37;82.60;99219.44;7393409;19;20038;-69
2023/01/16 06:31:02;;;;;;;6.80;1.67;;;;;;;2.39;82.60;99222.88;7392787;19;20014;-69
2023/01/16 06:33:30;;;;;;;6.60;1.58;;;;;;;2.38;82.54;99215.13;7395083;19;20035;-68
2023/01/16 06:35:59;;;;;;;4.15;1.67;;;;;;;2.38;82.72;99208.22;7393830;19;20077;-68
2023/01/16 06:38:30;;;;;;;3.92;1.20;;;;;;;2.39;82.53;99199.59;7395439;19;20018;-69
2023/01/16 06:40:59;;;;;;;6.25;1.77;;;;;;;2.39;82.19;99190.94;7393698;19;20066;-68
2023/01/16 06:43:28;;;;;;;6.15;1.48;;;;;;;2.39;82.27;99202.16;7392311;19;20027;-68
2023/01/16 06:45:57;;;;;;;2.97;1.20;;;;;;;2.38;81.83;99199.59;7391847;19;20418;-68
2023/01/16 06:48:26;;;;;;;3.35;1.45;;;;;;;2.36;82.29;99184.06;7395056;19;20399;-69
2023/01/16 06:50:55;;;;;;;5.43;1.85;;;;;;;2.32;82.38;99187.59;7392316;19;20007;-68
2023/01/16 06:53:24;;;;;;;6.15;1.77;;;;;;;2.35;82.55;99181.50;7392719;19;20093;-69
2023/01/16 06:55:55;;;;;;;6.38;2.08;;;;;;;2.33;82.25;99191.06;7392613;19;20031;-68
2023/01/16 06:58:23;;;;;;;4.63;1.25;;;;;;;2.34;82.42;99187.56;7394676;19;20083;-68
2023/01/16 07:00:52;;;;;;;5.78;1.70;;;;;;;2.32;82.33;99187.59;7394098;19;20018;-68
2023/01/16 07:03:21;;;;;;;5.65;1.20;;;;;;;2.31;81.98;99187.63;7393534;19;20018;-69
2023/01/16 07:05:49;;;;;;;8.13;1.40;;;;;;;2.29;82.13;99192.81;7393032;19;20481;-71
2023/01/16 07:08:19;;;;;;;2.95;1.15;;;;;;;2.27;81.84;99187.66;7393519;19;20031;-69
2023/01/16 07:10:47;;;;;;;4.03;1.30;;;;;;;2.29;82.29;99200.59;7395559;19;20014;-69
2023/01/16 07:13:23;;;;;;;2.35;1.33;;;;;;;2.28;82.12;99201.44;7398885;19;20541;-68
2023/01/16 07:24:02;;;;;;;3.05;1.13;;;;;;;2.29;81.83;99190.22;7395493;19;20002;-69
2023/01/16 07:26:30;;;;;;;3.60;1.10;;;;;;;2.30;81.90;99189.34;7400906;19;20022;-69
2023/01/16 07:29:03;;;;;;;5.53;1.20;;;;;;;2.32;81.63;99173.81;7400530;19;20069;-68
2023/01/16 07:31:33;;;;;;;5.53;1.83;;;;;;;2.33;82.01;99171.19;7401043;19;20018;-70
2023/01/16 07:34:08;;;;;;;3.15;1.40;;;;;;;2.34;81.23;99159.09;7399471;19;20537;-69
2023/01/16 07:36:37;;;;;;;5.68;1.38;;;;;;;2.32;81.20;99163.44;7400343;19;20081;-70
2023/01/16 07:39:05;;;;;;;3.28;1.42;;;;;;;2.35;80.99;99173.75;7400766;19;20022;-70
2023/01/16 07:41:34;;;;;;;4.43;1.27;;;;;;;2.36;81.53;99181.47;7400310;19;20015;-68
2023/01/16 07:44:12;;;;;;;4.45;1.23;;;;;;;2.37;80.84;99172.00;7396874;19;20494;-69
2023/01/16 07:46:40;;;;;;;3.10;1.73;;;;;;;2.38;80.69;99163.38;7400373;19;20062;-68
2023/01/16 07:49:09;;;;;;;5.53;1.48;;;;;;;2.39;80.84;99155.56;7400103;19;20084;-69
2023/01/16 07:51:38;;;;;;;2.45;1.42;;;;;;;2.39;80.81;99149.53;7400212;19;20569;-68
2023/01/16 07:54:07;;;;;;;1.63;1.15;;;;;;;2.39;80.05;99145.22;7398004;19;20041;-69
2023/01/16 07:56:36;;;;;;;5.72;1.38;;;;;;;2.40;80.08;99134.00;7399607;19;20390;-69
2023/01/16 07:59:07;;;;;;;5.43;1.63;;;;;;;2.42;79.78;99129.63;7396948;19;20014;-68
2023/01/16 08:01:36;;;;;;;8.85;2.50;;;;;;;2.47;80.49;99131.31;7396821;19;20082;-69
2023/01/16 08:04:04;;;;;;;6.60;3.15;;;;;;;2.51;80.67;99127.81;7397896;19;20086;-68
2023/01/16 08:06:33;;;;;;;23.55;8.25;;;;;;;2.54;80.78;99123.44;7399188;19;20098;-68
2023/01/16 08:09:01;;;;;;;19.95;8.13;;;;;;;2.57;80.41;99113.03;7396536;19;20010;-69
2023/01/16 08:11:39;;;;;;;14.60;5.68;;;;;;;2.61;80.36;99106.91;7399130;19;20066;-68
2023/01/16 08:14:10;;;;;;;9.40;4.45;;;;;;;2.64;80.57;99095.69;7396555;19;20097;-68
2023/01/16 08:16:38;;;;;;;6.25;2.67;;;;;;;2.67;79.49;99093.03;7396079;19;20533;-69
2023/01/16 08:19:07;;;;;;;4.35;1.77;;;;;;;2.71;79.61;99084.31;7399270;19;20098;-69
2023/01/16 08:21:35;;;;;;;7.32;2.35;;;;;;;2.75;79.54;99085.13;7396212;19;20024;-69
2023/01/16 08:24:04;;;;;;;17.17;8.43;;;;;;;2.79;80.13;99081.59;7397394;19;20094;-68
2023/01/16 08:26:32;;;;;;;5.05;2.40;;;;;;;2.81;78.87;99079.84;7397691;19;20545;-69
2023/01/16 08:29:02;;;;;;;6.10;3.30;;;;;;;2.83;79.14;99070.34;7398717;19;20018;-68
2023/01/16 08:31:34;;;;;;;7.20;2.90;;;;;;;2.86;78.68;99066.84;7398744;19;20023;-69
2023/01/16 08:34:02;;;;;;;9.07;3.58;;;;;;;2.89;78.72;99059.00;7396295;19;20089;-69
2023/01/16 08:36:31;;;;;;;6.53;2.33;;;;;;;2.90;78.97;99058.13;7398555;19;20093;-68
2023/01/16 08:38:59;;;;;;;6.78;2.50;;;;;;;2.93;78.83;99050.28;7399260;19;20078;-70
2023/01/16 08:52:20;;;;;;;2.83;1.90;;;;;;;3.04;78.32;99026.78;7397557;19;20017;-68
2023/01/16 08:54:49;;;;;;;4.72;1.85;;;;;;;3.05;78.48;99020.72;7395647;19;20082;-68
2023/01/16 08:57:17;;;;;;;5.10;1.70;;;;;;;3.08;78.13;99021.53;7399138;19;20430;-68
2023/01/16 08:59:45;;;;;;;4.93;1.85;;;;;;;3.10;77.42;99013.72;7397802;19;20019;-69
2023/01/16 09:02:19;;;;;;;4.60;1.30;;;;;;;3.13;77.61;99012.81;7395111;19;20070;-70
2023/01/16 09:04:47;;;;;;;5.80;1.75;;;;;;;3.15;78.10;99008.47;7395583;19;20528;-69
2023/01/16 09:07:16;;;;;;;4.20;1.67;;;;;;;3.18;77.18;99010.97;7397950;19;20094;-69
2023/01/16 09:09:45;;;;;;;7.07;1.50;;;;;;;3.21;77.20;99005.72;7397231;19;20027;-70
2023/01/16 09:14:55;;;;;;;3.63;2.42;;;;;;;3.28;76.81;99007.31;7395272;19;20011;-70
2023/01/16 09:17:27;;;;;;;4.07;1.55;;;;;;;3.33;76.36;99002.88;7397223;19;20081;-71
2023/01/16 09:19:55;;;;;;;3.55;1.80;;;;;;;3.37;76.51;99001.09;7397480;19;20020;-70
2023/01/16 09:22:25;;;;;;;3.88;1.58;;;;;;;3.42;76.77;98999.25;7396995;19;20031;-70
2023/01/16 09:24:54;;;;;;;2.20;1.05;;;;;;;3.47;76.49;98999.16;7394942;19;20074;-70
2023/01/16 09:27:24;;;;;;;6.63;1.45;;;;;;;3.53;76.82;98988.66;7396814;19;20493;-70
2023/01/16 09:29:53;;;;;;;3.17;1.10;;;;;;;3.57;75.69;98985.13;7396915;19;20019;-70
2023/01/16 09:32:22;;;;;;;4.07;1.33;;;;;;;3.63;76.33;98982.41;7394780;19;20545;-71
2023/01/16 09:34:53;;;;;;;3.67;1.10;;;;;;;3.69;75.62;98982.28;7394085;19;20544;-70
2023/01/16 09:37:21;;;;;;;2.05;1.40;;;;;;;3.73;75.79;98983.06;7394519;19;20148;-69
2023/01/16 09:39:50;;;;;;;3.30;1.98;;;;;;;3.78;75.49;98975.16;7394480;19;20018;-70
2023/01/16 09:45:30;;;;;;;2.28;1.42;;;;;;;3.87;74.99;98964.59;7396145;19;20489;-71
2023/01/16 09:48:04;;;;;;;5.25;1.23;;;;;;;3.90;74.22;98959.31;7394917;19;20035;-68
2023/01/16 09:50:42;;;;;;;4.97;1.00;;;;;;;3.93;73.35;98954.06;7394441;19;20074;-69
2023/01/16 09:58:46;;;;;;;2.35;1.10;;;;;;;4.01;73.43;98933.97;7395733;19;20015;-70
2023/01/16 10:01:18;;;;;;;3.03;1.15;;;;;;;4.05;74.26;98933.00;7395054;19;20078;-69
2023/01/16 10:03:47;;;;;;;3.63;1.00;;;;;;;4.07;73.64;98923.44;7393276;19;20081;-69
2023/01/16 10:06:26;;;;;;;7.70;2.58;;;;;;;4.10;73.17;98913.88;7395388;19;20040;-70
2023/01/16 10:09:05;;;;;;;2.75;1.10;;;;;;;4.14;73.05;98907.72;7396016;19;20087;-70
2023/01/16 10:11:42;;;;;;;3.88;1.48;;;;;;;4.16;71.09;98900.75;7395583;19;20070;-70
2023/01/16 10:14:34;;;;;;;3.08;1.50;;;;;;;4.20;71.21;98892.00;7394048;19;20022;-69
2023/01/16 10:17:16;;;;;;;2.70;1.33;;;;;;;4.21;72.14;98881.56;7395358;19;20095;-70
2023/01/16 10:20:01;;;;;;;4.25;1.20;;;;;;;4.26;70.56;98872.81;7395072;19;20061;-70
2023/01/16 10:22:40;;;;;;;;;;;;;;;4.29;69.94;98864.94;7396360;19;20429;-69
2023/01/16 10:25:20;;;;;;;7.30;2.80;;;;;;;4.31;71.02;98865.75;7394865;19;20341;-71
2023/01/16 10:27:58;;;;;;;5.55;1.55;;;;;;;4.33;72.48;98844.03;7393764;19;20078;-70
2023/01/16 10:30:30;;;;;;;5.57;1.13;;;;;;;4.35;72.31;98850.06;7393370;19;20019;-69
2023/01/16 10:33:07;;;;;;;4.05;2.13;;;;;;;4.38;71.87;98843.94;7394519;19;20053;-70
2023/01/16 10:35:41;;;;;;;2.55;1.60;;;;;;;4.39;72.58;98838.69;7393912;19;20022;-69
2023/01/16 10:38:38;;;;;;;3.78;1.67;;;;;;;4.42;70.87;98842.94;7395196;19;20038;-69
2023/01/16 10:49:25;;;;;;;2.45;1.35;;;;;;;4.46;71.64;98831.59;7392080;19;20372;-71
2023/01/16 10:49:30;;;;;;;4.40;1.42;;;;;;;4.57;71.96;98816.56;7401854;19;20494;-71
2023/01/16 10:52:02;;;;;;;5.90;1.55;;;;;;;4.62;72.37;98808.63;7399683;19;20070;-71
2023/01/16 10:54:34;;;;;;;4.05;1.23;;;;;;;4.65;70.42;98799.91;7399940;19;20022;-70
2023/01/16 10:57:03;;;;;;;3.15;1.05;;;;;;;4.69;71.11;98791.16;7399349;19;20086;-69
2023/01/16 10:59:35;;;;;;;6.88;1.30;;;;;;;4.73;71.10;98785.78;7398583;19;20011;-69
2023/01/16 11:02:17;;;;;;;4.80;1.25;;;;;;;4.78;71.20;98774.41;7398538;19;20078;-68
2023/01/16 11:04:45;;;;;;;3.03;1.10;;;;;;;4.81;71.14;98774.34;7399223;19;20019;-69
2023/01/16 11:07:18;;;;;;;3.22;1.00;;;;;;;4.84;70.69;98767.31;7401458;19;20081;-69
2023/01/16 11:09:49;;;;;;;2.40;1.20;;;;;;;4.86;70.62;98765.50;7401925;19;20018;-68
2023/01/16 11:20:38;;;;;;;3.03;1.38;;;;;;;5.06;70.29;98725.06;7401131;19;20002;-68
2023/01/16 11:23:18;;;;;;;3.33;1.42;;;;;;;5.09;69.94;98721.50;7400037;19;20479;-69
2023/01/16 11:25:51;;;;;;;2.20;1.10;;;;;;;5.15;68.64;98703.97;7401096;19;20082;-68
2023/01/16 11:28:23;;;;;;;3.63;1.55;;;;;;;5.21;68.63;98703.75;7398045;19;20074;-69
2023/01/16 11:30:56;;;;;;;4.68;1.90;;;;;;;5.26;69.38;98700.16;7398804;19;20090;-68
2023/01/16 11:33:27;;;;;;;2.90;1.38;;;;;;;5.32;69.06;98687.81;7398402;19;20086;-68
2023/01/16 11:35:59;;;;;;;5.13;1.80;;;;;;;5.39;65.17;98680.66;7398912;19;20025;-68
2023/01/16 11:38:30;;;;;;;2.95;1.35;;;;;;;5.47;67.57;98678.66;7399600;19;20098;-70
2023/01/16 11:41:04;;;;;;;3.75;1.55;;;;;;;5.54;65.91;98674.09;7397407;19;20010;-69
2023/01/16 11:46:36;;;;;;;3.70;1.50;;;;;;;5.69;65.56;98680.53;7400281;19;20482;-69
2023/01/16 11:49:07;;;;;;;4.25;1.83;;;;;;;5.76;67.57;98668.13;7399788;19;20086;-69
2023/01/16 11:51:40;;;;;;;4.03;1.30;;;;;;;5.82;63.96;98654.91;7400602;19;20028;-69
2023/01/16 11:54:16;;;;;;;6.55;1.55;;;;;;;5.88;63.94;98658.13;7397875;19;20078;-70
2023/01/16 11:56:56;;;;;;;3.33;0.88;;;;;;;5.94;63.72;98651.00;7398298;19;20435;-69
2023/01/16 12:00:17;;;;;;;3.05;1.45;;;;;;;5.99;64.21;98643.91;7400934;19;20078;-70
2023/01/16 12:03:00;;;;;;;1.92;1.05;;;;;;;6.05;63.11;98630.66;7398454;19;20034;-69
2023/01/16 12:08:48;;;;;;;2.55;1.17;;;;;;;6.15;63.32;98613.78;7397053;19;20094;-70
2023/01/16 12:11:26;;;;;;;2.25;1.02;;;;;;;6.21;64.09;98609.28;7398523;19;20019;-71
2023/01/16 12:16:58;;;;;;;1.55;0.68;;;;;;;6.30;60.44;98586.31;7398083;19;20023;-69
2023/01/16 12:19:55;;;;;;;1.48;0.70;;;;;;;6.36;60.99;98585.25;7399715;19;20025;-69
2023/01/16 12:22:37;;;;;;;1.67;0.75;;;;;;;6.40;63.09;98573.78;7395413;19;20078;-69
2023/01/16 12:25:17;;;;;;;1.33;0.45;;;;;;;6.44;62.84;98570.16;7396369;19;20022;-69
2023/01/16 12:27:56;;;;;;;1.85;0.60;;;;;;;6.48;60.96;98563.94;7396360;19;20034;-68
2023/01/16 12:30:43;;;;;;;1.10;0.60;;;;;;;6.52;59.38;98559.41;7398984;19;20041;-71
2023/01/16 12:33:21;;;;;;;3.47;0.82;;;;;;;6.57;61.41;98547.09;7397083;19;20022;-70
2023/01/16 12:36:01;;;;;;;2.70;0.98;;;;;;;6.59;60.17;98545.25;7396313;19;20021;-70
2023/01/16 12:38:35;;;;;;;3.00;0.77;;;;;;;6.61;58.65;98538.22;7399080;19;20423;-70
2023/01/16 12:44:19;;;;;;;2.80;0.73;;;;;;;6.65;61.00;98523.31;7398697;19;20370;-70
2023/01/16 12:47:00;;;;;;;2.00;0.75;;;;;;;6.67;58.38;98526.69;7397639;19;20014;-69
2023/01/16 12:49:45;;;;;;;1.60;0.60;;;;;;;6.67;57.62;98514.53;7396891;19;20492;-69
2023/01/16 12:52:29;;;;;;;2.42;0.57;;;;;;;6.71;58.17;98506.56;7397775;19;20461;-71
2023/01/16 12:55:14;;;;;;;3.50;0.85;;;;;;;6.74;58.40;98496.03;7395544;19;20026;-71
2023/01/16 12:57:56;;;;;;;1.77;0.77;;;;;;;6.78;59.80;98502.78;7398972;19;20022;-70
2023/01/16 13:00:27;;;;;;;1.67;0.70;;;;;;;6.80;59.91;98493.16;7397898;19;20014;-70
2023/01/16 13:03:03;;;;;;;1.27;0.60;;;;;;;6.81;57.21;98493.09;7396136;19;20083;-71
2023/01/16 13:05:35;;;;;;;2.75;0.80;;;;;;;6.86;58.13;98487.66;7397789;19;20074;-69
2023/01/16 13:08:09;;;;;;;2.38;0.70;;;;;;;6.90;59.90;98483.16;7396178;19;20083;-70
2023/01/16 13:13:27;;;;;;;1.38;0.75;;;;;;;6.94;58.54;98458.69;7396624;19;20021;-70